sensor_id;sensor_type;location;lat;lon;timestamp;temperature;humidity
42187;DHT22;27858;51.414;0.018;2023-02-15T00:01:52;6.40;99.90
42187;DHT22;27858;51.414;0.018;2023-02-15T00:04:22;6.40;99.90
42187;DHT22;27858;51.414;0.018;2023-02-15T00:06:49;6.40;99.90
42187;DHT22;27858;51.414;0.018;2023-02-15T00:09:16;6.40;99.90
42187;DHT22;27858;51.414;0.018;2023-02-15T00:11:43;6.30;99.90
42187;DHT22;27858;51.414;0.018;2023-02-15T00:14:21;6.30;99.90
42187;DHT22;27858;51.414;0.018;2023-02-15T00:16:50;6.30;99.90
42187;DHT22;27858;51.414;0.018;2023-02-15T00:19:19;6.30;99.90
42187;DHT22;27858;51.414;0.018;2023-02-15T00:21:47;6.30;99.90
42187;DHT22;27858;51.414;0.018;2023-02-15T00:24:17;6.40;99.90
42187;DHT22;27858;51.414;0.018;2023-02-15T00:26:45;6.40;99.90
42187;DHT22;27858;51.414;0.018;2023-02-15T00:29:13;6.40;99.90
42187;DHT22;27858;51.414;0.018;2023-02-15T00:31:41;6.40;99.90
42187;DHT22;27858;51.414;0.018;2023-02-15T00:34:14;6.40;99.90
42187;DHT22;27858;51.414;0.018;2023-02-15T00:36:42;6.40;99.90
42187;DHT22;27858;51.414;0.018;2023-02-15T00:39:10;6.40;99.90
42187;DHT22;27858;51.414;0.018;2023-02-15T00:41:37;6.40;99.90
42187;DHT22;27858;51.414;0.018;2023-02-15T00:44:05;6.50;99.90
42187;DHT22;27858;51.414;0.018;2023-02-15T00:46:32;6.50;99.90
42187;DHT22;27858;51.414;0.018;2023-02-15T00:48:59;6.60;99.90
42187;DHT22;27858;51.414;0.018;2023-02-15T00:51:26;6.60;99.90
42187;DHT22;27858;51.414;0.018;2023-02-15T00:53:53;6.60;99.90
42187;DHT22;27858;51.414;0.018;2023-02-15T00:56:19;6.50;99.90
42187;DHT22;27858;51.414;0.018;2023-02-15T00:58:46;6.60;99.90
42187;DHT22;27858;51.414;0.018;2023-02-15T05:02:19;5.80;99.90
42187;DHT22;27858;51.414;0.018;2023-02-15T05:04:46;5.90;99.90
42187;DHT22;27858;51.414;0.018;2023-02-15T05:07:12;5.90;99.90
42187;DHT22;27858;51.414;0.018;2023-02-15T05:09:42;5.80;99.90
42187;DHT22;27858;51.414;0.018;2023-02-15T05:12:09;6.00;99.90
42187;DHT22;27858;51.414;0.018;2023-02-15T05:14:36;5.90;99.90
42187;DHT22;27858;51.414;0.018;2023-02-15T05:17:03;5.80;99.90
42187;DHT22;27858;51.414;0.018;2023-02-15T05:19:31;6.00;99.90
42187;DHT22;27858;51.414;0.018;2023-02-15T05:21:58;5.90;99.90
42187;DHT22;27858;51.414;0.018;2023-02-15T05:24:25;6.00;99.90
42187;DHT22;27858;51.414;0.018;2023-02-15T05:27:11;5.90;99.90
42187;DHT22;27858;51.414;0.018;2023-02-15T05:29:57;6.10;99.90
42187;DHT22;27858;51.414;0.018;2023-02-15T05:32:24;6.00;99.90
42187;DHT22;27858;51.414;0.018;2023-02-15T05:34:51;6.10;99.90
42187;DHT22;27858;51.414;0.018;2023-02-15T05:37:18;6.00;99.90
42187;DHT22;27858;51.414;0.018;2023-02-15T05:39:45;6.00;99.90
42187;DHT22;27858;51.414;0.018;2023-02-15T05:42:11;6.20;99.90
42187;DHT22;27858;51.414;0.018;2023-02-15T05:44:38;6.10;99.90
42187;DHT22;27858;51.414;0.018;2023-02-15T05:47:05;6.20;99.90
42187;DHT22;27858;51.414;0.018;2023-02-15T05:49:33;6.20;99.90
42187;DHT22;27858;51.414;0.018;2023-02-15T05:52:00;6.30;99.90
42187;DHT22;27858;51.414;0.018;2023-02-15T05:54:28;6.30;99.90
42187;DHT22;27858;51.414;0.018;2023-02-15T05:56:55;6.30;99.90
42187;DHT22;27858;51.414;0.018;2023-02-15T05:59:22;6.10;99.90
42187;DHT22;27858;51.414;0.018;2023-02-15T06:01:49;6.10;99.90
42187;DHT22;27858;51.414;0.018;2023-02-15T06:04:16;6.10;99.90
42187;DHT22;27858;51.414;0.018;2023-02-15T06:06:43;6.20;99.90
42187;DHT22;27858;51.414;0.018;2023-02-15T06:09:12;6.20;99.90
42187;DHT22;27858;51.414;0.018;2023-02-15T06:11:39;6.10;99.90
42187;DHT22;27858;51.414;0.018;2023-02-15T06:14:05;6.10;99.90
42187;DHT22;27858;51.414;0.018;2023-02-15T06:16:32;6.10;99.90
42187;DHT22;27858;51.414;0.018;2023-02-15T06:18:59;6.20;99.90
42187;DHT22;27858;51.414;0.018;2023-02-15T06:21:28;6.20;99.90
42187;DHT22;27858;51.414;0.018;2023-02-15T06:23:55;6.30;99.90
42187;DHT22;27858;51.414;0.018;2023-02-15T06:26:22;6.10;99.90
42187;DHT22;27858;51.414;0.018;2023-02-15T06:28:49;6.20;99.90
42187;DHT22;27858;51.414;0.018;2023-02-15T06:31:15;6.10;99.90
42187;DHT22;27858;51.414;0.018;2023-02-15T06:33:43;6.20;99.90
42187;DHT22;27858;51.414;0.018;2023-02-15T06:36:09;6.10;99.90
42187;DHT22;27858;51.414;0.018;2023-02-15T06:38:36;6.10;99.90
42187;DHT22;27858;51.414;0.018;2023-02-15T06:41:03;6.30;99.90
42187;DHT22;27858;51.414;0.018;2023-02-15T06:43:30;6.20;99.90
42187;DHT22;27858;51.414;0.018;2023-02-15T06:45:57;6.00;99.90
42187;DHT22;27858;51.414;0.018;2023-02-15T06:48:24;6.10;99.90
42187;DHT22;27858;51.414;0.018;2023-02-15T06:50:50;6.10;99.90
42187;DHT22;27858;51.414;0.018;2023-02-15T06:53:17;6.10;99.90
42187;DHT22;27858;51.414;0.018;2023-02-15T06:55:44;6.10;99.90
42187;DHT22;27858;51.414;0.018;2023-02-15T06:58:10;6.00;99.90
42187;DHT22;27858;51.414;0.018;2023-02-15T07:00:37;6.00;99.90
42187;DHT22;27858;51.414;0.018;2023-02-15T07:03:04;6.10;99.90
42187;DHT22;27858;51.414;0.018;2023-02-15T07:05:33;6.00;99.90
42187;DHT22;27858;51.414;0.018;2023-02-15T07:08:00;6.10;99.90
42187;DHT22;27858;51.414;0.018;2023-02-15T07:10:27;6.00;99.90
42187;DHT22;27858;51.414;0.018;2023-02-15T07:12:54;6.00;99.90
42187;DHT22;27858;51.414;0.018;2023-02-15T07:15:21;6.10;99.90
42187;DHT22;27858;51.414;0.018;2023-02-15T07:17:49;6.00;99.90
42187;DHT22;27858;51.414;0.018;2023-02-15T07:20:18;6.00;99.90
42187;DHT22;27858;51.414;0.018;2023-02-15T07:22:47;6.10;99.90
42187;DHT22;27858;51.414;0.018;2023-02-15T07:25:14;6.20;99.90
42187;DHT22;27858;51.414;0.018;2023-02-15T07:27:41;6.20;99.90
42187;DHT22;27858;51.414;0.018;2023-02-15T07:30:11;6.30;99.90
42187;DHT22;27858;51.414;0.018;2023-02-15T07:32:39;6.40;99.90
42187;DHT22;27858;51.414;0.018;2023-02-15T07:35:26;6.50;99.90
42187;DHT22;27858;51.414;0.018;2023-02-15T07:37:54;6.50;99.90
42187;DHT22;27858;51.414;0.018;2023-02-15T07:40:21;6.60;99.90
42187;DHT22;27858;51.414;0.018;2023-02-15T07:42:50;6.70;99.90
42187;DHT22;27858;51.414;0.018;2023-02-15T07:45:20;6.60;99.90
42187;DHT22;27858;51.414;0.018;2023-02-15T07:47:47;6.70;99.90
42187;DHT22;27858;51.414;0.018;2023-02-15T07:50:14;6.70;99.90
42187;DHT22;27858;51.414;0.018;2023-02-15T07:52:41;6.80;99.90
42187;DHT22;27858;51.414;0.018;2023-02-15T07:55:08;7.00;99.90
42187;DHT22;27858;51.414;0.018;2023-02-15T07:57:35;6.90;99.90
42187;DHT22;27858;51.414;0.018;2023-02-15T08:00:03;7.00;99.90
42187;DHT22;27858;51.414;0.018;2023-02-15T08:02:30;7.20;99.90
42187;DHT22;27858;51.414;0.018;2023-02-15T08:04:57;7.20;99.90
42187;DHT22;27858;51.414;0.018;2023-02-15T08:07:23;7.40;99.90
42187;DHT22;27858;51.414;0.018;2023-02-15T08:09:50;7.30;99.90
42187;DHT22;27858;51.414;0.018;2023-02-15T08:12:17;7.30;99.90
42187;DHT22;27858;51.414;0.018;2023-02-15T08:14:44;7.50;99.90
42187;DHT22;27858;51.414;0.018;2023-02-15T08:17:11;7.60;99.90
42187;DHT22;27858;51.414;0.018;2023-02-15T08:19:38;7.60;99.90
42187;DHT22;27858;51.414;0.018;2023-02-15T08:22:06;7.80;99.90
42187;DHT22;27858;51.414;0.018;2023-02-15T08:24:35;7.80;99.90
42187;DHT22;27858;51.414;0.018;2023-02-15T08:27:07;8.00;99.90
42187;DHT22;27858;51.414;0.018;2023-02-15T08:29:36;8.00;99.90
42187;DHT22;27858;51.414;0.018;2023-02-15T08:32:06;8.00;99.90
42187;DHT22;27858;51.414;0.018;2023-02-15T08:34:40;8.10;99.90
42187;DHT22;27858;51.414;0.018;2023-02-15T08:37:08;8.20;99.90
42187;DHT22;27858;51.414;0.018;2023-02-15T08:39:35;8.20;99.90
42187;DHT22;27858;51.414;0.018;2023-02-15T08:42:03;8.30;99.90
42187;DHT22;27858;51.414;0.018;2023-02-15T08:44:30;8.20;99.90
42187;DHT22;27858;51.414;0.018;2023-02-15T08:46:57;8.30;99.90
42187;DHT22;27858;51.414;0.018;2023-02-15T08:49:29;8.40;99.90
42187;DHT22;27858;51.414;0.018;2023-02-15T08:51:56;8.30;99.90
42187;DHT22;27858;51.414;0.018;2023-02-15T08:54:23;8.30;99.90
42187;DHT22;27858;51.414;0.018;2023-02-15T08:56:50;8.40;99.90
42187;DHT22;27858;51.414;0.018;2023-02-15T08:59:18;8.30;99.90
42187;DHT22;27858;51.414;0.018;2023-02-15T09:01:46;8.40;99.90
42187;DHT22;27858;51.414;0.018;2023-02-15T09:04:14;8.40;99.90
42187;DHT22;27858;51.414;0.018;2023-02-15T09:06:43;8.50;99.90
42187;DHT22;27858;51.414;0.018;2023-02-15T09:09:13;8.70;99.90
42187;DHT22;27858;51.414;0.018;2023-02-15T09:11:42;8.60;99.90
42187;DHT22;27858;51.414;0.018;2023-02-15T09:14:12;8.70;99.90
42187;DHT22;27858;51.414;0.018;2023-02-15T09:16:44;8.90;99.90
42187;DHT22;27858;51.414;0.018;2023-02-15T09:19:13;8.80;99.90
42187;DHT22;27858;51.414;0.018;2023-02-15T09:21:40;9.00;99.90
42187;DHT22;27858;51.414;0.018;2023-02-15T09:24:12;9.20;99.90
42187;DHT22;27858;51.414;0.018;2023-02-15T09:26:43;9.30;99.90
42187;DHT22;27858;51.414;0.018;2023-02-15T09:29:12;9.20;99.90
42187;DHT22;27858;51.414;0.018;2023-02-15T09:31:41;9.30;99.90
42187;DHT22;27858;51.414;0.018;2023-02-15T09:34:12;9.50;99.90
42187;DHT22;27858;51.414;0.018;2023-02-15T09:36:40;9.70;99.90
42187;DHT22;27858;51.414;0.018;2023-02-15T09:39:26;9.70;99.00
42187;DHT22;27858;51.414;0.018;2023-02-15T10:09:19;10.40;61.60
42187;DHT22;27858;51.414;0.018;2023-02-15T10:12:04;10.40;49.30
42187;DHT22;27858;51.414;0.018;2023-02-15T10:27:52;10.80;1.00
42187;DHT22;27858;51.414;0.018;2023-02-15T10:30:48;10.80;1.00
42187;DHT22;27858;51.414;0.018;2023-02-15T10:33:39;10.80;1.00
42187;DHT22;27858;51.414;0.018;2023-02-15T10:36:32;10.80;1.00
42187;DHT22;27858;51.414;0.018;2023-02-15T10:39:22;10.80;1.00
42187;DHT22;27858;51.414;0.018;2023-02-15T10:45:40;10.90;1.00
42187;DHT22;27858;51.414;0.018;2023-02-15T10:56:25;11.10;1.00
42187;DHT22;27858;51.414;0.018;2023-02-15T11:07:18;11.20;1.00
42187;DHT22;27858;51.414;0.018;2023-02-15T11:10:32;11.40;1.00
42187;DHT22;27858;51.414;0.018;2023-02-15T11:12:38;11.40;1.00
42187;DHT22;27858;51.414;0.018;2023-02-15T11:18:05;11.60;1.00
42187;DHT22;27858;51.414;0.018;2023-02-15T11:20:52;11.60;99.90
42187;DHT22;27858;51.414;0.018;2023-02-15T11:23:21;11.70;99.90
42187;DHT22;27858;51.414;0.018;2023-02-15T11:26:04;11.80;99.90
42187;DHT22;27858;51.414;0.018;2023-02-15T11:28:52;11.90;99.90
42187;DHT22;27858;51.414;0.018;2023-02-15T11:31:26;12.00;99.90
42187;DHT22;27858;51.414;0.018;2023-02-15T11:36:58;12.10;99.90
42187;DHT22;27858;51.414;0.018;2023-02-15T11:39:47;12.20;99.90
42187;DHT22;27858;51.414;0.018;2023-02-15T11:42:23;12.30;99.90
42187;DHT22;27858;51.414;0.018;2023-02-15T11:45:29;12.40;99.90
42187;DHT22;27858;51.414;0.018;2023-02-15T11:48:10;12.50;99.90
42187;DHT22;27858;51.414;0.018;2023-02-15T11:50:38;12.60;99.90
42187;DHT22;27858;51.414;0.018;2023-02-15T11:53:14;12.70;99.90
42187;DHT22;27858;51.414;0.018;2023-02-15T11:55:46;12.70;99.90
42187;DHT22;27858;51.414;0.018;2023-02-15T11:58:33;12.80;99.90
42187;DHT22;27858;51.414;0.018;2023-02-15T12:03:44;13.00;99.90
42187;DHT22;27858;51.414;0.018;2023-02-15T12:06:35;13.00;99.90
42187;DHT22;27858;51.414;0.018;2023-02-15T12:09:17;13.10;99.90
42187;DHT22;27858;51.414;0.018;2023-02-15T12:11:48;13.10;99.90
42187;DHT22;27858;51.414;0.018;2023-02-15T12:14:15;13.10;99.90
42187;DHT22;27858;51.414;0.018;2023-02-15T12:16:51;13.10;99.90
42187;DHT22;27858;51.414;0.018;2023-02-15T12:22:23;13.30;99.90
42187;DHT22;27858;51.414;0.018;2023-02-15T12:24:53;13.40;99.90
42187;DHT22;27858;51.414;0.018;2023-02-15T12:27:27;13.40;99.90
42187;DHT22;27858;51.414;0.018;2023-02-15T12:30:04;13.50;99.90
42187;DHT22;27858;51.414;0.018;2023-02-15T12:32:50;13.50;99.90
42187;DHT22;27858;51.414;0.018;2023-02-15T12:35:28;13.40;99.90
42187;DHT22;27858;51.414;0.018;2023-02-15T12:38:02;13.50;99.90
42187;DHT22;27858;51.414;0.018;2023-02-15T12:40:31;13.60;99.90
42187;DHT22;27858;51.414;0.018;2023-02-15T12:42:58;13.60;99.90
42187;DHT22;27858;51.414;0.018;2023-02-15T12:45:28;13.60;99.90
42187;DHT22;27858;51.414;0.018;2023-02-15T12:50:35;13.70;99.90
42187;DHT22;27858;51.414;0.018;2023-02-15T12:55:34;13.80;99.90
42187;DHT22;27858;51.414;0.018;2023-02-15T12:58:17;13.90;99.90
42187;DHT22;27858;51.414;0.018;2023-02-15T13:00:45;13.90;99.90
42187;DHT22;27858;51.414;0.018;2023-02-15T13:03:21;13.90;99.90
42187;DHT22;27858;51.414;0.018;2023-02-15T13:05:50;14.00;99.90
42187;DHT22;27858;51.414;0.018;2023-02-15T13:08:28;14.10;99.90
42187;DHT22;27858;51.414;0.018;2023-02-15T13:10:59;14.10;99.90
42187;DHT22;27858;51.414;0.018;2023-02-15T13:13:32;14.20;99.90
42187;DHT22;27858;51.414;0.018;2023-02-15T13:16:08;14.20;99.90
42187;DHT22;27858;51.414;0.018;2023-02-15T13:18:46;14.30;99.90
42187;DHT22;27858;51.414;0.018;2023-02-15T13:21:19;14.40;99.90
42187;DHT22;27858;51.414;0.018;2023-02-15T13:23:51;14.40;99.90
42187;DHT22;27858;51.414;0.018;2023-02-15T13:26:20;14.50;99.90
42187;DHT22;27858;51.414;0.018;2023-02-15T13:28:51;14.70;99.90
42187;DHT22;27858;51.414;0.018;2023-02-15T13:31:22;14.60;99.90
42187;DHT22;27858;51.414;0.018;2023-02-15T13:34:15;14.60;99.90
42187;DHT22;27858;51.414;0.018;2023-02-15T13:42:36;14.80;99.90
42187;DHT22;27858;51.414;0.018;2023-02-15T13:50:52;14.90;99.90
42187;DHT22;27858;51.414;0.018;2023-02-15T14:01:31;15.10;99.90
42187;DHT22;27858;51.414;0.018;2023-02-15T14:04:50;15.30;99.90
42187;DHT22;27858;51.414;0.018;2023-02-15T14:20:41;16.10;99.90
42187;DHT22;27858;51.414;0.018;2023-02-15T14:25:55;16.30;99.90
42187;DHT22;27858;51.414;0.018;2023-02-15T14:31:07;16.20;99.90
42187;DHT22;27858;51.414;0.018;2023-02-15T14:33:41;16.10;99.90
42187;DHT22;27858;51.414;0.018;2023-02-15T14:36:15;16.10;99.90
42187;DHT22;27858;51.414;0.018;2023-02-15T14:41:49;16.00;99.90
42187;DHT22;27858;51.414;0.018;2023-02-15T14:44:36;16.20;99.90
42187;DHT22;27858;51.414;0.018;2023-02-15T14:58:37;16.30;99.90
42187;DHT22;27858;51.414;0.018;2023-02-15T15:01:09;16.40;99.90
42187;DHT22;27858;51.414;0.018;2023-02-15T15:03:50;16.30;99.90
42187;DHT22;27858;51.414;0.018;2023-02-15T15:09:09;16.10;99.90
42187;DHT22;27858;51.414;0.018;2023-02-15T15:11:41;16.00;99.90
42187;DHT22;27858;51.414;0.018;2023-02-15T15:14:36;16.00;99.90
42187;DHT22;27858;51.414;0.018;2023-02-15T15:16:58;16.20;99.90
42187;DHT22;27858;51.414;0.018;2023-02-15T15:22:21;16.10;99.90
42187;DHT22;27858;51.414;0.018;2023-02-15T15:24:58;16.10;99.90
42187;DHT22;27858;51.414;0.018;2023-02-15T15:27:53;16.00;99.90
42187;DHT22;27858;51.414;0.018;2023-02-15T15:49:37;16.00;99.90
42187;DHT22;27858;51.414;0.018;2023-02-15T15:52:19;16.20;99.90
42187;DHT22;27858;51.414;0.018;2023-02-15T15:54:53;16.40;99.90
42187;DHT22;27858;51.414;0.018;2023-02-15T15:59:52;16.10;99.90
42187;DHT22;27858;51.414;0.018;2023-02-15T16:02:19;15.90;99.90
42187;DHT22;27858;51.414;0.018;2023-02-15T16:04:46;15.90;99.90
42187;DHT22;27858;51.414;0.018;2023-02-15T16:10:02;15.60;99.90
42187;DHT22;27858;51.414;0.018;2023-02-15T16:12:37;15.40;99.90
42187;DHT22;27858;51.414;0.018;2023-02-15T16:17:48;15.40;99.90
42187;DHT22;27858;51.414;0.018;2023-02-15T16:20:17;15.10;99.90
42187;DHT22;27858;51.414;0.018;2023-02-15T16:22:53;14.80;99.90
42187;DHT22;27858;51.414;0.018;2023-02-15T16:26:08;14.50;99.90
42187;DHT22;27858;51.414;0.018;2023-02-15T16:28:36;14.30;99.90
42187;DHT22;27858;51.414;0.018;2023-02-15T16:31:12;14.20;99.90
42187;DHT22;27858;51.414;0.018;2023-02-15T16:33:41;14.00;99.90
42187;DHT22;27858;51.414;0.018;2023-02-15T16:36:26;13.90;99.90
42187;DHT22;27858;51.414;0.018;2023-02-15T16:41:24;13.80;99.90
42187;DHT22;27858;51.414;0.018;2023-02-15T16:43:56;13.70;99.90
42187;DHT22;27858;51.414;0.018;2023-02-15T16:46:27;13.50;99.90
42187;DHT22;27858;51.414;0.018;2023-02-15T16:48:58;13.50;99.90
42187;DHT22;27858;51.414;0.018;2023-02-15T16:51:31;13.30;99.90
42187;DHT22;27858;51.414;0.018;2023-02-15T16:54:05;13.20;99.90
42187;DHT22;27858;51.414;0.018;2023-02-15T16:56:32;13.20;99.90
42187;DHT22;27858;51.414;0.018;2023-02-15T16:59:01;13.10;99.90
42187;DHT22;27858;51.414;0.018;2023-02-15T17:01:30;13.00;99.90
42187;DHT22;27858;51.414;0.018;2023-02-15T17:06:59;12.90;99.90
42187;DHT22;27858;51.414;0.018;2023-02-15T17:09:26;12.80;99.90
42187;DHT22;27858;51.414;0.018;2023-02-15T17:11:53;12.80;99.90
42187;DHT22;27858;51.414;0.018;2023-02-15T17:14:22;12.70;99.90
42187;DHT22;27858;51.414;0.018;2023-02-15T17:16:58;12.70;99.90
42187;DHT22;27858;51.414;0.018;2023-02-15T17:19:32;12.60;99.90
42187;DHT22;27858;51.414;0.018;2023-02-15T17:22:05;12.60;99.90
42187;DHT22;27858;51.414;0.018;2023-02-15T17:24:42;12.50;99.90
42187;DHT22;27858;51.414;0.018;2023-02-15T17:27:19;12.50;99.90
42187;DHT22;27858;51.414;0.018;2023-02-15T17:29:52;12.50;99.90
42187;DHT22;27858;51.414;0.018;2023-02-15T17:32:24;12.40;99.90
42187;DHT22;27858;51.414;0.018;2023-02-15T17:42:44;12.20;99.90
42187;DHT22;27858;51.414;0.018;2023-02-15T17:45:11;12.20;99.90
42187;DHT22;27858;51.414;0.018;2023-02-15T17:47:41;12.20;99.90
42187;DHT22;27858;51.414;0.018;2023-02-15T17:50:30;12.10;99.90
42187;DHT22;27858;51.414;0.018;2023-02-15T17:52:58;12.00;99.90
42187;DHT22;27858;51.414;0.018;2023-02-15T17:55:25;12.00;99.90
42187;DHT22;27858;51.414;0.018;2023-02-15T17:58:03;12.00;99.90
42187;DHT22;27858;51.414;0.018;2023-02-15T18:00:31;12.00;99.90
42187;DHT22;27858;51.414;0.018;2023-02-15T18:03:18;12.00;99.90
42187;DHT22;27858;51.414;0.018;2023-02-15T18:06:04;12.00;99.90
42187;DHT22;27858;51.414;0.018;2023-02-15T18:08:50;12.00;99.90
42187;DHT22;27858;51.414;0.018;2023-02-15T18:11:38;12.00;99.90
42187;DHT22;27858;51.414;0.018;2023-02-15T18:14:07;12.00;99.90
42187;DHT22;27858;51.414;0.018;2023-02-15T18:16:36;11.90;99.90
42187;DHT22;27858;51.414;0.018;2023-02-15T18:19:05;11.90;99.90
42187;DHT22;27858;51.414;0.018;2023-02-15T18:21:32;11.90;99.90
42187;DHT22;27858;51.414;0.018;2023-02-15T18:23:59;11.90;99.90
42187;DHT22;27858;51.414;0.018;2023-02-15T18:26:26;11.80;99.90
42187;DHT22;27858;51.414;0.018;2023-02-15T18:28:54;11.80;99.90
42187;DHT22;27858;51.414;0.018;2023-02-15T18:31:21;11.70;99.90
42187;DHT22;27858;51.414;0.018;2023-02-15T18:33:52;11.80;99.90
42187;DHT22;27858;51.414;0.018;2023-02-15T18:36:23;11.70;99.90
42187;DHT22;27858;51.414;0.018;2023-02-15T18:38:51;11.70;99.90
42187;DHT22;27858;51.414;0.018;2023-02-15T18:41:20;11.70;99.90
42187;DHT22;27858;51.414;0.018;2023-02-15T18:43:48;11.60;99.90
42187;DHT22;27858;51.414;0.018;2023-02-15T18:46:16;11.60;99.90
42187;DHT22;27858;51.414;0.018;2023-02-15T18:48:43;11.60;99.90
42187;DHT22;27858;51.414;0.018;2023-02-15T18:51:18;11.60;99.90
42187;DHT22;27858;51.414;0.018;2023-02-15T18:53:47;11.50;99.90
42187;DHT22;27858;51.414;0.018;2023-02-15T18:56:17;11.50;99.90
42187;DHT22;27858;51.414;0.018;2023-02-15T18:58:44;11.50;99.90
42187;DHT22;27858;51.414;0.018;2023-02-15T19:01:19;11.50;1.00
42187;DHT22;27858;51.414;0.018;2023-02-15T19:03:49;11.40;1.00
42187;DHT22;27858;51.414;0.018;2023-02-15T19:06:19;11.50;1.00
42187;DHT22;27858;51.414;0.018;2023-02-15T19:08:48;11.40;1.00
42187;DHT22;27858;51.414;0.018;2023-02-15T19:11:22;11.40;1.00
42187;DHT22;27858;51.414;0.018;2023-02-15T19:13:54;11.30;1.00
42187;DHT22;27858;51.414;0.018;2023-02-15T19:16:29;11.30;1.00
42187;DHT22;27858;51.414;0.018;2023-02-15T19:18:57;11.30;1.00
42187;DHT22;27858;51.414;0.018;2023-02-15T19:21:29;11.30;1.00
42187;DHT22;27858;51.414;0.018;2023-02-15T19:24:03;11.20;1.00
42187;DHT22;27858;51.414;0.018;2023-02-15T19:26:34;11.20;1.00
42187;DHT22;27858;51.414;0.018;2023-02-15T19:29:13;11.10;1.00
42187;DHT22;27858;51.414;0.018;2023-02-15T19:31:40;11.10;2.10
42187;DHT22;27858;51.414;0.018;2023-02-15T19:34:14;11.10;5.90
42187;DHT22;27858;51.414;0.018;2023-02-15T19:36:43;11.10;13.80
42187;DHT22;27858;51.414;0.018;2023-02-15T19:39:36;11.00;23.00
42187;DHT22;27858;51.414;0.018;2023-02-15T19:42:04;11.00;30.00
42187;DHT22;27858;51.414;0.018;2023-02-15T19:44:32;11.00;33.80
42187;DHT22;27858;51.414;0.018;2023-02-15T19:47:00;11.00;52.90
42187;DHT22;27858;51.414;0.018;2023-02-15T19:49:28;10.90;63.20
42187;DHT22;27858;51.414;0.018;2023-02-15T19:51:57;10.80;74.30
42187;DHT22;27858;51.414;0.018;2023-02-15T19:54:28;10.80;92.00
42187;DHT22;27858;51.414;0.018;2023-02-15T19:56:56;10.80;94.20
42187;DHT22;27858;51.414;0.018;2023-02-15T20:01:53;10.80;99.90
42187;DHT22;27858;51.414;0.018;2023-02-15T20:04:20;10.80;99.90
42187;DHT22;27858;51.414;0.018;2023-02-15T20:06:49;10.80;99.90
42187;DHT22;27858;51.414;0.018;2023-02-15T20:09:31;10.80;99.90
42187;DHT22;27858;51.414;0.018;2023-02-15T20:12:00;10.60;99.90
42187;DHT22;27858;51.414;0.018;2023-02-15T20:14:28;10.80;99.90
42187;DHT22;27858;51.414;0.018;2023-02-15T20:16:56;10.70;99.90
42187;DHT22;27858;51.414;0.018;2023-02-15T20:19:25;10.60;99.90
42187;DHT22;27858;51.414;0.018;2023-02-15T20:21:53;10.50;99.90
42187;DHT22;27858;51.414;0.018;2023-02-15T20:24:29;10.50;99.90
42187;DHT22;27858;51.414;0.018;2023-02-15T20:26:58;10.50;99.90
42187;DHT22;27858;51.414;0.018;2023-02-15T20:29:25;10.60;99.90
42187;DHT22;27858;51.414;0.018;2023-02-15T20:31:52;10.50;99.90
42187;DHT22;27858;51.414;0.018;2023-02-15T20:34:21;10.50;99.90
42187;DHT22;27858;51.414;0.018;2023-02-15T20:36:48;10.60;99.90
42187;DHT22;27858;51.414;0.018;2023-02-15T20:39:17;10.50;99.90
42187;DHT22;27858;51.414;0.018;2023-02-15T20:41:46;10.50;99.90
42187;DHT22;27858;51.414;0.018;2023-02-15T20:44:21;10.60;99.90
42187;DHT22;27858;51.414;0.018;2023-02-15T20:46:50;10.60;99.90
42187;DHT22;27858;51.414;0.018;2023-02-15T20:49:20;10.60;99.90
42187;DHT22;27858;51.414;0.018;2023-02-15T20:51:50;10.60;99.90
42187;DHT22;27858;51.414;0.018;2023-02-15T20:54:23;10.40;99.90
42187;DHT22;27858;51.414;0.018;2023-02-15T20:56:52;10.50;99.90
42187;DHT22;27858;51.414;0.018;2023-02-15T20:59:24;10.40;99.90
42187;DHT22;27858;51.414;0.018;2023-02-15T21:01:58;10.40;99.90
42187;DHT22;27858;51.414;0.018;2023-02-15T21:04:29;10.60;99.90
42187;DHT22;27858;51.414;0.018;2023-02-15T21:06:59;10.60;99.90
42187;DHT22;27858;51.414;0.018;2023-02-15T21:09:28;10.40;99.90
42187;DHT22;27858;51.414;0.018;2023-02-15T21:11:57;10.60;99.90
42187;DHT22;27858;51.414;0.018;2023-02-15T21:14:26;10.40;99.90
42187;DHT22;27858;51.414;0.018;2023-02-15T21:16:55;10.40;99.90
42187;DHT22;27858;51.414;0.018;2023-02-15T21:19:23;10.70;99.90
42187;DHT22;27858;51.414;0.018;2023-02-15T21:21:52;10.70;99.90
42187;DHT22;27858;51.414;0.018;2023-02-15T21:24:27;10.60;99.90
42187;DHT22;27858;51.414;0.018;2023-02-15T21:26:57;10.60;99.90
42187;DHT22;27858;51.414;0.018;2023-02-15T21:29:27;10.40;99.90
42187;DHT22;27858;51.414;0.018;2023-02-15T21:31:54;10.50;99.90
42187;DHT22;27858;51.414;0.018;2023-02-15T21:34:24;10.40;99.90
42187;DHT22;27858;51.414;0.018;2023-02-15T21:36:51;10.40;99.90
42187;DHT22;27858;51.414;0.018;2023-02-15T21:39:23;10.30;99.90
42187;DHT22;27858;51.414;0.018;2023-02-15T21:41:54;10.50;99.90
42187;DHT22;27858;51.414;0.018;2023-02-15T21:44:41;10.30;99.90
42187;DHT22;27858;51.414;0.018;2023-02-15T21:47:30;10.60;99.90
42187;DHT22;27858;51.414;0.018;2023-02-15T21:50:21;10.30;99.90
42187;DHT22;27858;51.414;0.018;2023-02-15T21:53:11;10.30;99.90
42187;DHT22;27858;51.414;0.018;2023-02-15T21:55:39;10.50;99.90
42187;DHT22;27858;51.414;0.018;2023-02-15T21:58:21;10.30;99.90
42187;DHT22;27858;51.414;0.018;2023-02-15T22:00:51;10.40;99.90
42187;DHT22;27858;51.414;0.018;2023-02-15T22:03:23;10.20;99.90
42187;DHT22;27858;51.414;0.018;2023-02-15T22:05:51;10.30;99.90
42187;DHT22;27858;51.414;0.018;2023-02-15T22:08:18;10.30;99.90
42187;DHT22;27858;51.414;0.018;2023-02-15T22:10:46;10.60;99.90
42187;DHT22;27858;51.414;0.018;2023-02-15T22:13:31;10.30;99.90
42187;DHT22;27858;51.414;0.018;2023-02-15T22:15:58;10.30;99.90
42187;DHT22;27858;51.414;0.018;2023-02-15T22:18:32;10.60;99.90
42187;DHT22;27858;51.414;0.018;2023-02-15T22:21:00;10.60;99.90
42187;DHT22;27858;51.414;0.018;2023-02-15T22:23:27;10.60;99.90
42187;DHT22;27858;51.414;0.018;2023-02-15T22:26:06;10.30;99.90
42187;DHT22;27858;51.414;0.018;2023-02-15T22:28:36;10.40;99.90
42187;DHT22;27858;51.414;0.018;2023-02-15T22:31:10;10.40;99.90
42187;DHT22;27858;51.414;0.018;2023-02-15T22:33:38;10.40;99.90
42187;DHT22;27858;51.414;0.018;2023-02-15T22:36:08;10.40;99.90
42187;DHT22;27858;51.414;0.018;2023-02-15T22:38:38;10.50;99.90
42187;DHT22;27858;51.414;0.018;2023-02-15T22:41:04;10.70;99.90
42187;DHT22;27858;51.414;0.018;2023-02-15T22:43:39;10.50;99.90
42187;DHT22;27858;51.414;0.018;2023-02-15T22:46:15;10.50;99.90
42187;DHT22;27858;51.414;0.018;2023-02-15T22:48:44;10.50;99.90
42187;DHT22;27858;51.414;0.018;2023-02-15T22:51:15;10.70;99.90
42187;DHT22;27858;51.414;0.018;2023-02-15T22:53:42;10.80;99.90
42187;DHT22;27858;51.414;0.018;2023-02-15T22:56:17;10.80;99.90
42187;DHT22;27858;51.414;0.018;2023-02-15T22:58:44;10.80;99.90
42187;DHT22;27858;51.414;0.018;2023-02-15T23:01:32;10.80;99.90
42187;DHT22;27858;51.414;0.018;2023-02-15T23:03:59;10.70;99.90
42187;DHT22;27858;51.414;0.018;2023-02-15T23:06:30;10.60;99.90